Latest Coastal Weather Observations for Kiama

IDN60701

Issued at 4:51 am EST Tuesday 28 June 2022 (issued every 10 minutes, with the page automatically refreshed every 10 minutes)

About coastal observations | Map of coastal stations | Coastal observations for NSW | Marine services | Other Formats
Station Details ID: 068242 Name: KIAMA (BOMBO HEADLAND) Lat: -34.65 Lon: 150.86 Height: 15.5 m
Data from the previous 72 hours. | See also: Recent months at Kiama
Date/Time
EST
Wind Sea
Height
m
Swell Vis
km
Cloud Weather Temp
°C
Press
MSL
hPa
Rain since
9am
mm
Dir  Spd
kts
Gust
kts
Height
m
Period
s
Dir
28/04:30am SW 14 20 - - - - - - - 10.9 - 0.0
28/04:00am SSW 17 24 - - - - - - - 11.1 - 0.0
28/03:30am SW 16 20 - - - - - - - 11.0 - 0.0
28/03:00am SW 16 24 - - - - - - - 10.6 - 0.0
28/02:30am SW 16 23 - - - - - - - 10.5 - 0.0
28/02:00am SW 22 36 - - - - - - - 11.1 - 0.0
28/01:57am SW 21 36 - - - - - - - 11.3 - 0.0
28/01:30am SW 17 24 - - - - - - - 11.1 - 0.0
28/01:08am SW 19 30 - - - - - - - 11.1 - 0.0
28/01:00am SW 18 24 - - - - - - - 11.3 - 0.0
28/12:30am SW 16 23 - - - - - - - 11.6 - 0.0
28/12:00am SW 15 24 - - - - - - - 11.7 - 0.0
 
Date/Time
EST
Wind Sea
Height
m
Swell Vis
km
Cloud Weather Temp
°C
Press
MSL
hPa
Rain since
9am
mm
Dir  Spd
kts
Gust
kts
Height
m
Period
s
Dir
27/11:30pm SW 13 19 - - - - - - - 11.3 - 0.0
27/11:00pm SW 13 19 - - - - - - - 11.8 - 0.0
27/10:30pm SW 12 19 - - - - - - - 12.0 - 0.0
27/10:00pm SW 14 18 - - - - - - - 12.6 - 0.0
27/09:30pm SW 14 18 - - - - - - - 12.8 - 0.0
27/09:00pm SW 15 20 - - - - - - - 12.9 - 0.0
27/08:30pm SW 13 18 - - - - - - - 12.8 - 0.0
27/08:00pm SW 14 22 - - - - - - - 12.8 - 0.0
27/07:30pm SW 15 20 - - - - - - - 12.5 - 0.0
27/07:00pm SW 9 15 - - - - - - - 12.7 - 0.0
27/06:30pm SW 13 18 - - - - - - - 12.8 - 0.0
27/06:00pm SW 15 21 - - - - - - - 13.1 - 0.0
27/05:30pm SW 13 20 - - - - - - - 13.0 - 0.0
27/05:00pm SW 13 17 - - - - - - - 13.2 - 0.0
27/04:30pm SW 14 21 - - - - - - - 13.6 - 0.0
27/04:20pm SSW 15 26 - - - - - - - 13.6 - 0.0
27/04:00pm SSW 17 27 - - - - - - - 13.9 - 0.0
27/03:46pm SSW 17 28 - - - - - - - 14.0 - 0.0
27/03:30pm SSW 22 30 - - - - - - - 14.1 - 0.0
27/03:00pm SSW 24 31 - - - - - - - 14.0 - 0.0
27/02:36pm SSW 20 33 - - - - - - - 14.0 - 0.0
27/02:30pm SSW 19 26 - - - - - - - 13.9 - 0.0
27/02:00pm SSW 19 30 - - - - - - - 14.3 - 0.0
27/01:53pm SSW 17 30 - - - - - - - 14.1 - 0.0
27/01:30pm SSW 17 27 - - - - - - - 14.0 - 0.0
27/01:00pm SSW 18 24 - - - - - - - 14.3 - 0.0
27/12:30pm SSW 19 25 - - - - - - - 13.7 - 0.0
27/12:00pm SSW 23 31 - - - - - - - 13.8 - 0.0
27/11:30am SSW 25 31 - - - - - - - 13.8 - 0.0
27/11:00am SSW 25 31 - - - - - - - 14.1 - 0.0
27/10:52am SSW 19 31 - - - - - - - 14.0 - 0.0
27/10:30am SSW 18 25 - - - - - - - 14.1 - 0.0
27/10:00am SSW 18 26 - - - - - - - 13.6 - 0.0
27/09:30am SW 19 28 - - - - - - - 13.3 - 0.0
27/09:00am SSW 16 23 - - - - - - - 13.4 - 0.0
27/08:30am SW 19 26 - - - - - - - 13.2 - 0.0
27/08:00am SW 17 22 - - - - - - - 12.9 - 0.0
27/07:30am SW 16 21 - - - - - - - 12.6 - 0.0
27/07:00am SW 12 17 - - - - - - - 12.5 - 0.0
27/06:30am SW 18 22 - - - - - - - 12.6 - 0.0
27/06:00am SW 18 24 - - - - - - - 12.8 - 0.0
27/05:30am SW 17 23 - - - - - - - 12.9 - 0.0
27/05:00am SW 14 22 - - - - - - - 12.8 - 0.0
27/04:30am W 7 14 - - - - - - - 12.3 - 0.0
27/04:00am W 7 10 - - - - - - - 11.9 - 0.0
27/03:30am WSW 9 13 - - - - - - - 12.5 - 0.0
27/03:00am W 7 12 - - - - - - - 12.1 - 0.0
27/02:30am W 6 9 - - - - - - - 12.5 - 0.0
27/02:00am WNW 5 8 - - - - - - - 12.5 - 0.0
27/01:30am WNW 5 8 - - - - - - - 12.4 - 0.0
27/01:00am WNW 7 13 - - - - - - - 12.7 - 0.0
27/12:30am NW 7 10 - - - - - - - 12.9 - 0.0
27/12:00am NW 8 11 - - - - - - - 13.3 - 0.0
 
Date/Time
EST
Wind Sea
Height
m
Swell Vis
km
Cloud Weather Temp
°C
Press
MSL
hPa
Rain since
9am
mm
Dir  Spd
kts
Gust
kts
Height
m
Period
s
Dir
26/11:30pm NW 9 13 - - - - - - - 13.5 - 0.0
26/11:00pm W 8 12 - - - - - - - 13.6 - 0.0
26/10:30pm WNW 5 11 - - - - - - - 13.7 - 0.0
26/10:00pm WNW 7 12 - - - - - - - 14.1 - 0.0
26/09:30pm WNW 6 12 - - - - - - - 13.8 - 0.0
26/09:00pm WNW 5 8 - - - - - - - 13.8 - 0.0
26/08:30pm WNW 5 8 - - - - - - - 13.8 - 0.0
26/08:00pm W 2 3 - - - - - - - 13.6 - 0.0
26/07:30pm W 2 4 - - - - - - - 13.9 - 0.0
26/07:00pm NW 3 4 - - - - - - - 14.1 - 0.0
26/06:30pm WSW 5 8 - - - - - - - 14.8 - 0.0
26/06:00pm CALM 0 1 - - - - - - - 14.7 - 0.0
26/05:30pm W 2 5 - - - - - - - 14.8 - 0.0
26/05:00pm CALM 0 1 - - - - - - - 15.1 - 0.0
26/04:30pm W 2 3 - - - - - - - 15.9 - 0.0
26/04:00pm W 4 6 - - - - - - - 16.5 - 0.0
26/03:30pm W 5 7 - - - - - - - 17.1 - 0.0
26/03:00pm W 8 12 - - - - - - - 17.4 - 0.0
26/02:30pm W 11 17 - - - - - - - 17.6 - 0.0
26/02:00pm W 10 15 - - - - - - - 18.4 - 0.0
26/01:30pm WSW 7 10 - - - - - - - 18.3 - 0.0
26/01:00pm W 6 12 - - - - - - - 18.0 - 0.0
26/12:30pm W 10 14 - - - - - - - 17.9 - 0.0
26/12:00pm NE 4 5 - - - - - - - 17.8 - 0.0
26/11:30am NE 3 5 - - - - - - - 18.2 - 0.0
26/11:00am NNE 5 8 - - - - - - - 17.7 - 0.0
26/10:30am N 6 9 - - - - - - - 16.6 - 0.0
26/10:00am N 7 10 - - - - - - - 15.8 - 0.0
26/09:30am N 6 10 - - - - - - - 15.1 - 0.0
26/09:00am NNW 8 10 - - - - - - - 13.8 - 0.0
26/08:30am W 3 5 - - - - - - - 11.7 - 0.0
26/08:00am SW 3 4 - - - - - - - 11.0 - 0.0
26/07:30am NW 5 7 - - - - - - - 10.8 - 0.0
26/07:00am NW 6 8 - - - - - - - 10.4 - 0.0
26/06:30am NW 3 4 - - - - - - - 10.4 - 0.0
26/06:00am NNW 2 7 - - - - - - - 11.3 - 0.0
26/05:30am NNW 6 9 - - - - - - - 11.5 - 0.0
26/05:00am NNW 6 10 - - - - - - - 11.7 - 0.0
26/04:30am N 3 6 - - - - - - - 10.9 - 0.0
26/04:00am NNW 1 4 - - - - - - - 11.5 - 0.0
26/03:30am N 4 5 - - - - - - - 12.1 - 0.0
26/03:00am NNE 3 4 - - - - - - - 12.4 - 0.0
26/02:30am NE 2 4 - - - - - - - 12.4 - 0.0
26/02:00am WNW 2 4 - - - - - - - 12.7 - 0.0
26/01:30am WSW 2 5 - - - - - - - 13.1 - 0.0
26/01:00am W 3 6 - - - - - - - 13.2 - 0.0
26/12:30am SW 3 5 - - - - - - - 13.8 - 0.0
26/12:00am NNE 2 5 - - - - - - - 12.4 - 0.0
 
Date/Time
EST
Wind Sea
Height
m
Swell Vis
km
Cloud Weather Temp
°C
Press
MSL
hPa
Rain since
9am
mm
Dir  Spd
kts
Gust
kts
Height
m
Period
s
Dir
25/11:30pm N 2 4 - - - - - - - 12.8 - 0.0
25/11:00pm CALM 0 4 - - - - - - - 13.2 - 0.0
25/10:30pm WNW 4 7 - - - - - - - 13.6 - 0.0
25/10:00pm WNW 4 8 - - - - - - - 14.3 - 0.0
25/09:30pm WNW 7 11 - - - - - - - 14.3 - 0.0
25/09:00pm WNW 7 11 - - - - - - - 14.3 - 0.0
25/08:30pm WNW 5 8 - - - - - - - 14.3 - 0.0
25/08:00pm W 5 9 - - - - - - - 14.1 - 0.0
25/07:30pm WNW 4 10 - - - - - - - 14.7 - 0.0
25/07:00pm W 4 7 - - - - - - - 14.4 - 0.0
25/06:30pm W 3 7 - - - - - - - 14.8 - 0.0
25/06:00pm W 3 5 - - - - - - - 14.9 - 0.0
25/05:30pm WNW 3 5 - - - - - - - 15.5 - 0.0
25/05:00pm NW 3 5 - - - - - - - 15.9 - 0.0
25/04:30pm WNW 2 4 - - - - - - - 17.3 - 0.0
25/04:00pm W 7 10 - - - - - - - 18.0 - 0.0
25/03:30pm W 7 12 - - - - - - - 18.5 - 0.0
25/03:00pm W 10 16 - - - - - - - 18.7 - 0.0
25/02:30pm W 12 20 - - - - - - - 18.6 - 0.0
25/02:00pm W 10 19 - - - - - - - 19.0 - 0.0
25/01:30pm W 7 12 - - - - - - - 19.2 - 0.0
25/01:00pm WSW 9 17 - - - - - - - 19.0 - 0.0
25/12:30pm WNW 9 16 - - - - - - - 18.7 - 0.0
25/12:00pm W 5 8 - - - - - - - 18.7 - 0.0
25/11:30am W 5 8 - - - - - - - 18.7 - 0.0
25/11:00am W 6 9 - - - - - - - 18.1 - 0.0
25/10:30am W 3 7 - - - - - - - 17.9 - 0.0
25/10:00am N 5 8 - - - - - - - 17.9 - 0.0
25/09:30am N 5 7 - - - - - - - 16.6 - 0.0
25/09:00am N 3 5 - - - - - - - 15.7 - 0.0
25/08:30am N 3 5 - - - - - - - 15.6 - 0.0
25/08:00am WNW 2 3 - - - - - - - 15.0 - 0.0
25/07:30am WNW 2 4 - - - - - - - 13.3 - 0.0
25/07:00am WNW 1 3 - - - - - - - 12.5 - 0.0
25/06:30am WSW 2 4 - - - - - - - 12.5 - 0.0
25/06:00am WNW 5 6 - - - - - - - 14.0 - 0.0
25/05:30am N 3 4 - - - - - - - 13.7 - 0.0
25/05:00am ENE 3 3 - - - - - - - 14.1 - 0.0

Other formats

Comma delimited format used in spreadsheet applications
http://www.bom.gov.au/fwo/IDN60701/IDN60701.95749.axf

JavaScript Object Notation format (JSON) in row-major order
http://www.bom.gov.au/fwo/IDN60701/IDN60701.95749.json

Data quality

Most of these data are generated automatically and are frequently updated. Quality checks on data are not normally performed. It is possible for incorrect values to appear. Refer to information at About Latest Weather Observations and please check the disclaimer before using these data.